Time;durP1;ratioP1;P1;durP2;ratioP2;P2;SDS_P1;SDS_P2;PMS_P1;PMS_P2;Temp;Humidity;BMP_temperature;BMP_pressure;BME280_temperature;BME280_humidity;BME280_pressure;Samples;Min_cycle;Max_cycle;Signal;HPM_P1;HPM_P2
2022/08/11 00:01:24;;;;;;;;;10.00;10.00;;;;;26.98;29.35;101467.25;5118095;27;45364;-50
2022/08/11 00:03:54;;;;;;;;;10.50;9.00;;;;;26.95;28.91;101467.72;5118381;27;45421;-51
2022/08/11 00:06:36;;;;;;;;;9.00;7.80;;;;;26.92;28.79;101467.34;5117617;27;46276;-51
2022/08/11 00:09:17;;;;;;;;;11.40;8.80;;;;;26.85;29.07;101465.59;5117767;27;45321;-54
2022/08/11 00:11:48;;;;;;;;;9.40;9.40;;;;;26.87;28.89;101470.81;5117843;27;45307;-51
2022/08/11 00:14:24;;;;;;;;;11.00;11.00;;;;;26.84;28.89;101469.41;5118692;27;45394;-51
2022/08/11 00:17:05;;;;;;;;;9.40;9.20;;;;;26.81;29.17;101469.88;5121679;27;46880;-51
2022/08/11 00:19:38;;;;;;;;;9.40;9.20;;;;;26.81;28.97;101467.13;5121531;27;45400;-51
2022/08/11 00:22:05;;;;;;;;;8.00;6.60;;;;;26.80;28.85;101475.53;5121479;27;45309;-53
2022/08/11 00:24:36;;;;;;;;;10.80;7.60;;;;;26.77;28.98;101468.69;5121713;27;45548;-49
2022/08/11 00:27:02;;;;;;;;;12.80;9.80;;;;;26.77;29.19;101467.84;5121316;27;45281;-52
2022/08/11 00:29:28;;;;;;;;;7.50;7.25;;;;;26.76;29.39;101460.72;5121376;27;45370;-50
2022/08/11 00:31:56;;;;;;;;;10.20;8.60;;;;;26.73;28.61;101467.47;5121144;27;45269;-51
2022/08/11 00:34:26;;;;;;;;;10.40;10.40;;;;;26.70;29.29;101476.13;5121510;27;45519;-50
2022/08/11 00:37:02;;;;;;;;;7.20;7.20;;;;;26.60;28.80;101454.06;5120937;27;45492;-50
2022/08/11 00:39:32;;;;;;;;;8.40;7.20;;;;;26.68;28.44;101470.09;5121024;27;45366;-52
2022/08/11 00:42:01;;;;;;;;;9.60;9.60;;;;;26.68;28.59;101466.53;5121285;27;45321;-51
2022/08/11 00:44:36;;;;;;;;;11.00;9.40;;;;;26.65;28.69;101469.72;5121306;27;45396;-52
2022/08/11 00:47:10;;;;;;;;;13.00;10.00;;;;;26.61;28.82;101469.38;5121005;27;47101;-50
2022/08/11 00:50:00;;;;;;;;;9.20;9.20;;;;;26.62;28.47;101477.31;5120527;27;45309;-50
2022/08/11 00:52:52;;;;;;;;;9.40;9.00;;;;;26.61;28.24;101475.66;5102328;27;45409;-50
2022/08/11 00:55:39;;;;;;;;;6.50;6.50;;;;;26.59;28.35;101472.34;5121387;27;45269;-49
2022/08/11 00:58:33;;;;;;;;;8.50;8.25;;;;;26.58;28.77;101478.03;5120864;27;46583;-50
2022/08/11 01:01:07;;;;;;;;;9.80;8.00;;;;;26.58;28.64;101475.28;5037061;28;45544;-48
2022/08/11 01:03:57;;;;;;;;;7.80;7.80;;;;;26.55;28.43;101470.31;5037430;28;45515;-50
2022/08/11 01:06:28;;;;;;;;;8.00;7.00;;;;;26.52;28.08;101470.78;5037023;28;45558;-52
2022/08/11 01:09:06;;;;;;;;;8.20;8.20;;;;;26.49;28.16;101466.63;5036918;28;45452;-49
2022/08/11 01:11:59;;;;;;;;;8.20;8.20;;;;;26.46;28.17;101463.53;5036682;28;45463;-51
2022/08/11 01:14:43;;;;;;;;;9.60;9.20;;;;;26.43;28.32;101467.53;5037112;28;45590;-53
2022/08/11 01:17:47;;;;;;;;;10.25;10.25;;;;;26.41;28.16;101466.09;5037020;28;45462;-52
2022/08/11 01:20:41;;;;;;;;;8.40;7.20;;;;;26.37;28.81;101465.72;5036632;28;46086;-51
2022/08/11 01:23:09;;;;;;;;;12.00;9.40;;;;;26.36;29.01;101467.63;5036898;28;45391;-51
2022/08/11 01:26:00;;;;;;;;;8.20;8.20;;;;;26.33;28.31;101467.25;5036779;28;45550;-51
2022/08/11 01:28:40;;;;;;;;;7.20;7.20;;;;;26.32;28.64;101457.44;5036853;28;45344;-50
2022/08/11 01:31:17;;;;;;;;;8.60;8.60;;;;;26.27;28.54;101462.75;5036505;28;46195;-50
2022/08/11 01:34:10;;;;;;;;;6.20;6.20;;;;;26.25;28.89;101465.72;5036677;28;45374;-52
2022/08/11 01:36:55;;;;;;;;;9.00;8.00;;;;;26.26;29.10;101466.56;5036308;28;45578;-49
2022/08/11 01:39:32;;;;;;;;;7.40;6.80;;;;;26.17;29.20;101462.47;5120508;27;45312;-53
2022/08/11 01:45:57;;;;;;;;;8.00;8.00;;;;;26.15;29.13;101465.44;5120166;27;45272;-52
2022/08/11 01:48:28;;;;;;;;;9.00;9.00;;;;;26.13;29.42;101465.69;5120310;27;45236;-51
2022/08/11 01:51:13;;;;;;;;;6.60;6.60;;;;;26.09;28.79;101460.94;5120046;27;45248;-50
2022/08/11 01:53:41;;;;;;;;;7.25;7.25;;;;;26.07;29.08;101460.31;5119868;27;45362;-50
2022/08/11 01:56:16;;;;;;;;;9.20;7.60;;;;;26.03;29.51;101472.75;5119956;27;45169;-53
2022/08/11 01:58:55;;;;;;;;;11.60;7.00;;;;;26.03;29.02;101464.56;5120069;27;45237;-49
2022/08/11 02:01:31;;;;;;;;;12.50;9.25;;;;;25.99;29.04;101466.09;5120188;27;45452;-49
2022/08/11 02:04:03;;;;;;;;;8.00;8.00;;;;;25.97;29.29;101469.06;5119718;27;46218;-51
2022/08/11 02:07:01;;;;;;;;;7.00;7.00;;;;;25.95;29.59;101467.63;5119593;27;45388;-48
2022/08/11 02:09:48;;;;;;;;;8.80;8.80;;;;;25.90;29.60;101468.31;5104300;27;45377;-50
2022/08/11 02:12:22;;;;;;;;;10.50;9.00;;;;;25.90;29.44;101464.75;5119710;27;45673;-49
2022/08/11 02:15:06;;;;;;;;;7.60;7.60;;;;;25.82;28.79;101455.84;5119718;27;45380;-49
2022/08/11 02:18:20;;;;;;;;;8.20;8.00;;;;;25.85;29.22;101465.47;5119658;27;45472;-49
2022/08/11 02:23:51;;;;;;;;;8.00;7.25;;;;;25.80;29.01;101468.06;5036138;28;45425;-52
2022/08/11 02:26:29;;;;;;;;;7.25;7.00;;;;;25.77;29.05;101465.78;5035700;28;45544;-49
2022/08/11 02:29:20;;;;;;;;;11.00;9.00;;;;;25.75;29.50;101465.16;5035826;28;45575;-51
2022/08/11 02:34:55;;;;;;;;;8.00;8.00;;;;;25.71;29.40;101461.22;5035996;28;45423;-52
2022/08/11 02:37:32;;;;;;;;;10.60;9.40;;;;;25.69;29.10;101461.44;5034990;28;47214;-52
2022/08/11 02:39:57;;;;;;;;;8.20;7.80;;;;;25.67;29.68;101460.84;5035367;28;45443;-52
2022/08/11 02:42:43;;;;;;;;;10.00;7.75;;;;;25.63;29.55;101460.47;5035726;28;45311;-50
2022/08/11 02:45:29;;;;;;;;;8.75;8.75;;;;;25.63;29.50;101457.75;5035846;28;45359;-50
2022/08/11 02:51:02;;;;;;;;;10.00;10.00;;;;;25.58;29.85;101463.06;5035398;28;45419;-50
2022/08/11 02:53:33;;;;;;;;;7.60;7.60;;;;;25.56;29.77;101462.44;5034492;28;45519;-52
2022/08/11 02:56:10;;;;;;;;;7.50;7.50;;;;;25.54;29.28;101459.13;5035596;28;45593;-50
2022/08/11 03:01:57;;;;;;;;;7.00;7.00;;;;;25.54;29.83;101452.84;5118960;27;45323;-49
2022/08/11 03:04:39;;;;;;;;;8.00;8.00;;;;;25.51;29.74;101462.31;5119066;27;45355;-48
2022/08/11 03:07:23;;;;;;;;;7.25;7.25;;;;;25.46;29.57;101453.16;5119002;27;45256;-51
2022/08/11 03:10:05;;;;;;;;;10.75;9.00;;;;;25.43;29.71;101451.72;5118732;27;45409;-55
2022/08/11 03:18:56;;;;;;;;;9.00;9.00;;;;;25.30;29.65;101462.75;5119080;27;45328;-53
2022/08/11 03:21:31;;;;;;;;;7.00;7.00;;;;;25.31;30.21;101461.69;5118395;27;46265;-49
2022/08/11 03:24:24;;;;;;;;;8.80;8.40;;;;;25.19;29.98;101447.16;5118744;27;45226;-54
2022/08/11 03:27:19;;;;;;;;;9.25;9.00;;;;;25.25;30.21;101455.28;5118705;27;45401;-51
2022/08/11 03:30:20;;;;;;;;;9.50;8.75;;;;;25.23;30.21;101451.09;5118847;27;45329;-51
2022/08/11 03:36:21;;;;;;;;;8.60;7.80;;;;;25.17;30.37;101450.13;5118225;27;45255;-52
2022/08/11 03:39:02;;;;;;;;;9.00;9.00;;;;;25.15;29.97;101449.50;5118620;27;45445;-51
2022/08/11 03:41:43;;;;;;;;;7.00;7.00;;;;;25.13;30.21;101457.91;5118578;27;45330;-53
2022/08/11 03:44:36;;;;;;;;;11.00;9.50;;;;;25.11;30.24;101449.16;5118022;27;45501;-52
2022/08/11 03:47:36;;;;;;;;;7.00;7.00;;;;;25.09;30.12;101456.69;5118274;27;45301;-52
2022/08/11 03:50:23;;;;;;;;;9.75;8.00;;;;;25.06;30.34;101454.38;5121952;27;45348;-49
2022/08/11 03:53:12;;;;;;;;;11.50;9.75;;;;;24.93;30.20;101438.19;5125016;27;45370;-55
2022/08/11 03:56:11;;;;;;;;;9.00;8.00;;;;;25.01;30.42;101451.50;5124714;27;46170;-48
2022/08/11 03:59:16;;;;;;;;;10.20;10.20;;;;;25.05;30.25;101457.34;5125005;27;45269;-49
2022/08/11 04:02:25;;;;;;;;;9.60;9.00;;;;;25.01;30.28;101447.97;5041242;28;45272;-53
2022/08/11 04:05:14;;;;;;;;;9.75;9.75;;;;;24.98;30.12;101449.22;5041169;28;45527;-50
2022/08/11 04:07:42;;;;;;;;;9.75;9.75;;;;;24.96;30.05;101451.38;5040787;28;46376;-52
2022/08/11 04:10:41;;;;;;;;;10.00;10.00;;;;;24.94;30.13;101448.03;5040976;28;45314;-52
2022/08/11 04:13:26;;;;;;;;;8.50;8.50;;;;;24.92;30.39;101452.88;5041020;28;45447;-51
2022/08/11 04:16:31;;;;;;;;;12.00;9.00;;;;;24.89;29.85;101453.31;5041248;28;45355;-51
2022/08/11 04:19:33;;;;;;;;;9.00;9.00;;;;;24.86;30.61;101451.03;4981137;28;46087;-54
2022/08/11 04:22:17;;;;;;;;;9.80;7.80;;;;;24.84;30.30;101450.44;4981470;28;45301;-51
2022/08/11 04:25:06;;;;;;;;;7.50;7.50;;;;;24.80;30.45;101452.78;4981485;28;45311;-52
2022/08/11 04:27:48;;;;;;;;;7.00;7.00;;;;;24.79;30.47;101461.16;4981481;28;45532;-52
2022/08/11 04:30:21;;;;;;;;;9.75;9.00;;;;;24.78;30.35;101464.94;4980863;28;47142;-52
2022/08/11 04:33:10;;;;;;;;;8.60;8.60;;;;;24.76;30.55;101453.44;4981233;28;45466;-53
2022/08/11 04:35:44;;;;;;;;;12.00;9.50;;;;;24.74;30.47;101452.84;4981303;28;45358;-50
2022/08/11 04:38:32;;;;;;;;;10.75;8.25;;;;;24.74;30.48;101452.84;5022793;28;45403;-50
2022/08/11 04:41:02;;;;;;;;;9.25;9.00;;;;;24.73;30.55;101464.75;5060628;28;45397;-52
2022/08/11 04:43:46;;;;;;;;;9.60;9.60;;;;;24.69;30.55;101455.38;5060775;28;45435;-52
2022/08/11 04:46:42;;;;;;;;;11.25;9.50;;;;;24.66;30.51;101453.13;5060866;28;45320;-52
2022/08/11 05:01:42;;;;;;;;;11.75;8.50;;;;;24.56;30.98;101465.31;5121605;27;45399;-52
2022/08/11 05:07:20;;;;;;;;;10.75;9.00;;;;;24.52;30.61;101471.41;5120790;27;45223;-51
2022/08/11 05:10:25;;;;;;;;;10.75;9.25;;;;;24.50;31.31;101466.22;5120694;27;45427;-53
2022/08/11 05:27:09;;;;;;;;;11.75;9.00;;;;;24.45;30.76;101463.34;5120494;27;45539;-49
2022/08/11 05:36:24;;;;;;;;;7.50;7.50;;;;;24.47;31.04;101482.97;5120354;27;45336;-53
2022/08/11 05:58:31;;;;;;;;;10.50;7.75;;;;;24.56;30.91;101499.84;5036701;28;45466;-53
2022/08/11 06:00:58;;;;;;;;;12.25;10.25;;;;;24.60;31.22;101499.19;5035877;28;47009;-59
2022/08/11 06:03:28;;;;;;;;;11.60;10.00;;;;;24.68;31.37;101500.81;5036079;28;45458;-58
2022/08/11 06:05:57;;;;;;;;;9.50;9.50;;;;;24.73;30.90;101500.97;5036142;28;45557;-57
2022/08/11 06:08:35;;;;;;;;;12.25;10.00;;;;;24.78;31.18;101508.50;5035943;28;45487;-59
2022/08/11 06:11:04;;;;;;;;;12.25;9.25;;;;;24.85;30.62;101506.53;5035926;28;46092;-58
2022/08/11 06:13:31;;;;;;;;;9.40;8.00;;;;;24.86;30.80;101509.03;5035921;28;45520;-58
2022/08/11 06:15:57;;;;;;;;;9.25;9.00;;;;;24.50;30.83;101444.47;5086060;27;45401;-58
2022/08/11 06:18:24;;;;;;;;;8.75;8.25;;;;;24.91;30.39;101507.53;5119850;27;45290;-58
2022/08/11 06:20:55;;;;;;;;;10.75;10.75;;;;;24.90;30.74;101509.41;5119504;27;46110;-59
2022/08/11 06:23:22;;;;;;;;;13.75;11.00;;;;;24.94;30.63;101510.63;5119209;27;45351;-59
2022/08/11 06:25:50;;;;;;;;;10.75;9.25;;;;;24.99;30.76;101512.66;5119539;27;45300;-60
2022/08/11 06:28:18;;;;;;;;;9.75;9.25;;;;;25.01;31.04;101521.47;5119707;27;45405;-59
2022/08/11 06:30:46;;;;;;;;;10.00;9.00;;;;;25.05;30.55;101512.63;5119332;27;46442;-58
2022/08/11 06:33:28;;;;;;;;;10.00;10.00;;;;;25.06;30.67;101514.28;5119282;27;45749;-59
2022/08/11 06:36:06;;;;;;;;;9.00;9.00;;;;;25.10;30.03;101515.53;5119424;27;45383;-59
2022/08/11 06:38:55;;;;;;;;;11.00;11.00;;;;;25.10;30.43;101512.81;5119229;27;45340;-60
2022/08/11 06:41:30;;;;;;;;;11.25;9.50;;;;;25.15;30.72;101512.13;5100480;27;47164;-61
2022/08/11 06:44:04;;;;;;;;;13.25;10.00;;;;;25.23;30.55;101514.56;5118951;27;45336;-58
2022/08/11 06:46:37;;;;;;;;;11.25;10.00;;;;;25.28;30.77;101508.44;5119194;27;45469;-60
2022/08/11 06:52:06;;;;;;;;;10.00;9.50;;;;;25.42;29.99;101511.88;5118985;27;45636;-58
2022/08/11 06:54:40;;;;;;;;;8.25;8.25;;;;;25.37;30.12;101493.50;5119108;27;45314;-58
2022/08/11 07:02:46;;;;;;;;;10.50;9.00;;;;;25.81;30.20;101510.59;5118574;27;45752;-59
2022/08/11 07:05:14;;;;;;;;;9.20;9.00;;;;;26.03;29.96;101517.19;5100370;27;46165;-59
2022/08/11 07:16:50;;;;;;;;;9.80;8.80;;;;;27.82;27.43;101524.31;5118758;27;45326;-58
2022/08/11 07:30:39;;;;;;;;;4.80;4.80;;;;;30.30;24.02;101520.19;5118778;27;45366;-60
2022/08/11 07:33:06;;;;;;;;;7.40;7.40;;;;;30.42;24.02;101516.44;5118664;27;45307;-59
2022/08/11 07:35:41;;;;;;;;;10.40;9.40;;;;;30.72;24.01;101502.13;5118239;27;46172;-59
2022/08/11 07:38:14;;;;;;;;;9.80;8.00;;;;;31.26;24.16;101507.47;5118348;27;45228;-58
2022/08/11 07:40:42;;;;;;;;;12.20;9.60;;;;;31.92;22.80;101510.56;5117956;27;45348;-51
2022/08/11 07:43:10;;;;;;;;;9.20;9.00;;;;;32.61;22.87;101500.19;5118510;27;45762;-53
2022/08/11 07:53:53;;;;;;;;;8.40;7.00;;;;;36.68;19.21;101487.56;5118165;27;45357;-54
2022/08/11 07:56:19;;;;;;;;;9.50;8.50;;;;;38.41;16.86;101491.44;5118032;27;45838;-52
2022/08/11 08:18:07;;;;;;;;;8.20;8.20;;;;;49.35;11.74;101493.25;5117716;27;45242;-55
2022/08/11 08:20:42;;;;;;;;;6.00;6.00;;;;;49.76;10.66;101491.03;5118109;27;45331;-54
2022/08/11 08:23:09;;;;;;;;;6.20;6.20;;;;;50.33;9.07;101496.91;5118396;27;45332;-52
2022/08/11 08:25:39;;;;;;;;;11.60;8.80;;;;;50.65;9.77;101491.28;5119014;27;45424;-51
2022/08/11 08:28:08;;;;;;;;;6.40;5.40;;;;;50.79;9.66;101490.47;5117955;27;46338;-50
2022/08/11 08:30:51;;;;;;;;;7.60;7.20;;;;;51.65;8.76;101491.13;5117803;27;45301;-52
2022/08/11 08:33:23;;;;;;;;;8.80;7.00;;;;;52.51;8.40;101492.66;5117689;27;45448;-52
2022/08/11 08:36:10;;;;;;;;;5.00;5.00;;;;;52.92;9.88;101492.75;5117681;27;45389;-53
2022/08/11 08:38:39;;;;;;;;;6.00;6.00;;;;;52.98;7.51;101496.78;5120027;27;45408;-53
2022/08/11 08:41:06;;;;;;;;;7.20;7.20;;;;;53.56;7.32;101489.25;5121106;27;45226;-51
2022/08/11 08:43:34;;;;;;;;;5.20;5.20;;;;;53.95;7.48;101496.47;5121569;27;45437;-50
2022/08/11 08:46:00;;;;;;;;;5.00;4.60;;;;;53.95;7.24;101495.66;5121436;27;45376;-52
2022/08/11 08:48:29;;;;;;;;;7.20;6.20;;;;;53.87;8.62;101506.34;5120870;27;47243;-56
2022/08/11 08:53:53;;;;;;;;;7.00;6.20;;;;;54.70;7.16;101498.16;5120915;27;45361;-50
2022/08/11 08:56:24;;;;;;;;;7.80;6.20;;;;;54.95;7.01;101494.03;5120916;27;45426;-52
2022/08/11 08:58:49;;;;;;;;;4.40;4.40;;;;;54.99;7.97;101503.34;5120716;27;47376;-52
2022/08/11 09:01:20;;;;;;;;;4.00;4.00;;;;;55.01;7.07;101507.38;5120563;27;45340;-50
2022/08/11 09:03:45;;;;;;;;;8.60;6.20;;;;;55.36;5.92;101504.28;5120651;27;45250;-52
2022/08/11 09:06:15;;;;;;;;;5.50;5.50;;;;;55.37;7.79;101497.31;5120922;27;45419;-52
2022/08/11 09:08:42;;;;;;;;;3.80;3.80;;;;;55.37;7.05;101508.72;5102067;27;47937;-52
2022/08/11 09:13:54;;;;;;;;;5.80;5.80;;;;;55.38;7.42;101499.75;5120666;27;45369;-53
2022/08/11 09:16:22;;;;;;;;;4.80;4.80;;;;;55.21;7.21;101500.91;5120843;27;45422;-52
2022/08/11 09:18:47;;;;;;;;;4.20;4.20;;;;;55.48;7.48;101498.72;5120348;27;45496;-51
2022/08/11 09:21:15;;;;;;;;;6.00;6.00;;;;;55.66;6.76;101497.53;5120210;27;45308;-52
2022/08/11 09:29:12;;;;;;;;;5.40;4.00;;;;;55.76;6.80;101490.81;5120132;27;45642;-54
2022/08/11 09:31:38;;;;;;;;;6.00;6.00;;;;;56.21;5.89;101475.91;5120236;27;45236;-53
2022/08/11 09:34:03;;;;;;;;;6.00;6.00;;;;;56.37;5.95;101483.69;5120424;27;45330;-53
2022/08/11 09:42:02;;;;;;;;;4.00;3.80;;;;;56.57;5.82;101475.03;5120081;27;45228;-52
2022/08/11 09:44:48;;;;;;;;;8.60;5.80;;;;;56.61;5.24;101464.31;5120042;27;45303;-54
2022/08/11 09:47:18;;;;;;;;;4.40;4.40;;;;;56.65;5.72;101462.97;5119735;27;45400;-53
2022/08/11 09:49:45;;;;;;;;;5.80;5.60;;;;;56.69;6.29;101466.53;5119400;27;45378;-52
2022/08/11 09:52:13;;;;;;;;;4.40;4.40;;;;;56.63;5.91;101462.59;5119364;27;45362;-55
2022/08/11 09:54:41;;;;;;;;;6.20;5.20;;;;;56.66;5.34;101470.28;5120057;27;45416;-52
2022/08/11 09:59:52;;;;;;;;;5.00;5.00;;;;;56.21;6.05;101467.34;5119710;27;45778;-52
2022/08/11 10:02:25;;;;;;;;;5.40;4.60;;;;;56.39;6.03;101466.88;5119642;27;45230;-53
2022/08/11 10:07:00;;;;;;;;;4.20;4.20;;;;;56.39;6.01;101470.56;5119914;27;45445;-53
2022/08/11 10:07:49;;;;;;;;;5.00;5.00;;;;;56.81;5.43;101462.16;5119889;27;45218;-51
2022/08/11 10:10:15;;;;;;;;;3.80;3.80;;;;;56.41;4.83;101456.66;5118989;27;46201;-56
2022/08/11 10:12:47;;;;;;;;;3.60;3.60;;;;;56.66;6.69;101460.91;5119559;27;45238;-52
2022/08/11 10:15:37;;;;;;;;;4.40;4.20;;;;;56.92;4.98;101458.97;5119910;27;45396;-48
2022/08/11 10:21:08;;;;;;;;;4.80;4.80;;;;;56.28;5.17;101452.88;5119466;27;45345;-52
2022/08/11 10:34:42;;;;;;;;;3.60;3.60;;;;;56.16;5.26;101440.13;5119230;27;45335;-53
2022/08/11 10:37:09;;;;;;;;;5.00;5.00;;;;;55.91;5.92;101435.00;5119121;27;45308;-53
2022/08/11 10:39:37;;;;;;;;;5.60;5.60;;;;;55.64;5.77;101420.94;5119310;27;45334;-52
2022/08/11 10:44:52;;;;;;;;;6.00;5.80;;;;;55.03;5.74;101421.41;5118978;27;45329;-52
2022/08/11 10:47:33;;;;;;;;;6.60;6.00;;;;;54.72;6.25;101409.38;5119210;27;45508;-52
2022/08/11 11:01:07;;;;;;;;;4.40;4.40;;;;;53.68;5.86;101405.34;5118693;27;45357;-51
2022/08/11 11:03:34;;;;;;;;;7.60;7.60;;;;;53.31;6.07;101418.44;5100272;27;46278;-53
2022/08/11 11:06:14;;;;;;;;;5.80;5.80;;;;;53.05;6.64;101404.91;5118658;27;45176;-52
2022/08/11 11:08:54;;;;;;;;;9.00;7.80;;;;;52.54;6.49;101404.59;5118823;27;45459;-53
2022/08/11 11:17:54;;;;;;;;;2.20;2.20;;;;;52.18;6.89;101398.41;5118711;27;45342;-52
2022/08/11 11:19:39;;;;;;;;;5.80;5.80;;;;;51.80;6.99;101371.94;5118535;27;45368;-51
2022/08/11 11:25:15;;;;;;;;;4.20;4.20;;;;;50.96;7.24;101374.72;5118358;27;45430;-53
2022/08/11 11:28:06;;;;;;;;;10.20;8.60;;;;;50.42;7.18;101381.25;5117749;27;45451;-54
2022/08/11 11:30:41;;;;;;;;;6.00;5.80;;;;;49.97;7.38;101371.50;5099567;27;45453;-54
2022/08/11 11:33:54;;;;;;;;;7.40;6.40;;;;;49.65;7.47;101365.78;5118354;27;45299;-53
2022/08/11 11:36:38;;;;;;;;;8.00;8.00;;;;;48.86;7.78;101375.88;5109976;27;46225;-52
2022/08/11 11:39:05;;;;;;;;;8.00;8.00;;;;;48.32;7.59;101372.63;5117682;27;45327;-52
2022/08/11 11:41:31;;;;;;;;;9.60;8.60;;;;;47.37;8.83;101367.56;5117775;27;45406;-52
2022/08/11 11:43:57;;;;;;;;;8.00;8.00;;;;;46.39;8.54;101372.91;5118636;27;45474;-53
2022/08/11 11:46:29;;;;;;;;;10.40;8.60;;;;;44.51;10.00;101371.31;5117785;27;45296;-52
2022/08/11 11:48:56;;;;;;;;;7.80;7.80;;;;;43.14;10.70;101353.03;5117955;27;45303;-52
2022/08/11 11:51:22;;;;;;;;;7.20;7.20;;;;;41.99;11.52;101354.81;5117573;27;45387;-51
2022/08/11 11:53:49;;;;;;;;;7.60;7.60;;;;;40.66;12.14;101359.22;5118238;27;45163;-53
2022/08/11 11:56:15;;;;;;;;;9.20;9.20;;;;;39.74;13.35;101358.81;5106848;27;45547;-52
2022/08/11 12:01:26;;;;;;;;;10.20;10.20;;;;;38.37;14.58;101362.56;5097314;27;45351;-52
2022/08/11 12:03:54;;;;;;;;;8.60;7.60;;;;;37.96;14.23;101360.00;5097580;27;45367;-53
2022/08/11 12:06:22;;;;;;;;;7.00;7.00;;;;;37.58;14.69;101365.09;5096968;27;47038;-50
2022/08/11 12:08:50;;;;;;;;;7.60;6.40;;;;;37.19;14.80;101358.19;5097184;27;45222;-56
2022/08/11 12:14:05;;;;;;;;;6.00;6.00;;;;;36.53;15.41;101363.13;5100689;27;45325;-54
2022/08/11 12:16:34;;;;;;;;;5.60;5.60;;;;;36.35;15.67;101359.28;5100699;27;46149;-54
2022/08/11 12:19:00;;;;;;;;;10.80;8.00;;;;;36.10;16.11;101346.72;5100735;27;45452;-52
2022/08/11 12:21:28;;;;;;;;;8.40;8.40;;;;;36.10;16.08;101348.66;5100948;27;45381;-50
2022/08/11 12:29:14;;;;;;;;;9.60;8.00;;;;;35.91;15.96;101340.41;5101352;27;45393;-53
2022/08/11 12:31:40;;;;;;;;;7.80;7.60;;;;;35.61;16.54;101327.84;5101023;27;45372;-52
2022/08/11 12:34:09;;;;;;;;;8.80;8.80;;;;;35.48;16.92;101315.59;5100559;27;45286;-51
2022/08/11 12:36:49;;;;;;;;;8.20;8.20;;;;;35.64;16.70;101325.31;5100030;27;45323;-52
2022/08/11 12:45:26;;;;;;;;;8.00;7.40;;;;;35.61;16.81;101325.94;5100268;27;45460;-52
2022/08/11 12:45:30;;;;;;;;;10.00;7.40;;;;;35.41;16.31;101304.09;5100564;27;45385;-51
2022/08/11 12:53:27;;;;;;;;;8.20;8.20;;;;;35.08;16.93;101312.31;5100232;27;45447;-51
2022/08/11 12:58:45;;;;;;;;;7.00;7.00;;;;;34.88;16.77;101304.25;5099646;27;46087;-52
2022/08/11 13:06:41;;;;;;;;;10.60;8.60;;;;;34.64;17.65;101295.97;5100287;27;45306;-50
2022/08/11 13:09:10;;;;;;;;;8.40;7.00;;;;;34.54;17.48;101307.16;5099665;27;46015;-51
2022/08/11 13:14:25;;;;;;;;;7.40;7.20;;;;;34.48;17.06;101310.00;5099825;27;45184;-51
2022/08/11 13:19:40;;;;;;;;;8.20;7.60;;;;;34.15;17.41;101299.81;5099562;27;45303;-52
2022/08/11 13:22:07;;;;;;;;;8.20;8.00;;;;;34.12;17.71;101297.63;5098560;27;45472;-51
2022/08/11 13:24:33;;;;;;;;;5.00;5.00;;;;;34.03;17.71;101307.66;5099694;27;45375;-53
2022/08/11 13:26:59;;;;;;;;;9.00;8.00;;;;;33.89;18.43;101291.75;5099497;27;45377;-53
2022/08/11 13:29:27;;;;;;;;;10.00;8.60;;;;;33.73;18.47;101285.53;5099590;27;45279;-51
2022/08/11 13:31:55;;;;;;;;;8.40;8.40;;;;;33.74;18.35;101291.88;5099107;27;45511;-50
2022/08/11 13:34:25;;;;;;;;;13.20;11.40;;;;;33.78;18.53;101293.78;5099419;27;45374;-52
2022/08/11 13:36:53;;;;;;;;;8.40;8.40;;;;;33.80;18.82;101287.97;5099530;27;45334;-52
2022/08/11 13:39:27;;;;;;;;;10.60;10.00;;;;;33.85;18.79;101284.34;5098585;27;45479;-53
2022/08/11 13:41:55;;;;;;;;;9.20;8.60;;;;;33.89;18.88;101282.66;5099140;27;45380;-49
2022/08/11 13:44:21;;;;;;;;;9.20;8.20;;;;;33.88;18.04;101272.72;5098872;27;45483;-51
2022/08/11 13:46:48;;;;;;;;;9.60;9.00;;;;;33.86;18.33;101274.94;5099593;27;45561;-51
2022/08/11 13:49:16;;;;;;;;;5.80;5.00;;;;;33.69;18.63;101273.44;5098709;27;46682;-52
2022/08/11 13:51:42;;;;;;;;;8.80;8.80;;;;;33.66;19.26;101284.22;5080707;27;45347;-54
2022/08/11 13:54:18;;;;;;;;;9.20;7.00;;;;;33.69;18.83;101275.38;5099194;27;45420;-52
2022/08/11 13:56:50;;;;;;;;;8.80;8.80;;;;;33.70;18.67;101272.31;5099366;27;45370;-50
2022/08/11 13:59:23;;;;;;;;;5.60;5.60;;;;;33.67;18.48;101272.91;5099126;27;46670;-52
2022/08/11 14:01:54;;;;;;;;;6.00;6.00;;;;;33.61;18.39;101268.53;5098951;27;45243;-51
2022/08/11 14:04:42;;;;;;;;;8.20;8.20;;;;;33.57;18.13;101277.69;5080724;27;45316;-52
2022/08/11 14:07:10;;;;;;;;;7.80;6.80;;;;;33.57;18.24;101277.69;5097716;27;45453;-52
2022/08/11 14:09:38;;;;;;;;;0.00;0.00;;;;;33.53;18.51;101281.00;5098962;27;46123;-52
2022/08/11 14:15:06;;;;;;;;;8.60;8.00;;;;;33.40;18.90;101256.81;5098950;27;45309;-52
2022/08/11 14:17:33;;;;;;;;;9.00;9.00;;;;;33.45;18.73;101251.28;5098984;27;45330;-53
2022/08/11 14:20:03;;;;;;;;;9.40;8.00;;;;;33.44;18.85;101257.91;5098557;27;45445;-52
2022/08/11 14:22:30;;;;;;;;;10.60;10.60;;;;;33.46;18.67;101261.22;5098585;27;45391;-52
2022/08/11 14:24:58;;;;;;;;;0.00;0.00;;;;;33.41;18.90;101247.41;5098965;27;45302;-53
2022/08/11 14:27:29;;;;;;;;;12.40;12.40;;;;;33.46;18.88;101252.94;5098685;27;45331;-48
2022/08/11 14:29:56;;;;;;;;;10.40;10.40;;;;;33.43;19.33;101247.16;5098494;27;47110;-49
2022/08/11 14:32:23;;;;;;;;;2.00;0.00;;;;;33.41;19.36;101249.34;5098464;27;45455;-52
2022/08/11 14:34:49;;;;;;;;;9.00;8.60;;;;;33.41;19.70;101241.91;5098649;27;45448;-52
2022/08/11 14:37:20;;;;;;;;;12.40;10.20;;;;;33.42;19.06;101237.25;5098326;27;45430;-52
2022/08/11 14:39:55;;;;;;;;;9.60;9.40;;;;;33.48;18.84;101231.41;5097480;27;45342;-51
2022/08/11 14:48:00;;;;;;;;;10.40;8.40;;;;;33.56;18.83;101232.72;5113256;27;45322;-50
2022/08/11 14:50:28;;;;;;;;;8.80;8.80;;;;;33.52;18.65;101217.88;5118687;27;46397;-53
2022/08/11 14:52:59;;;;;;;;;10.80;10.00;;;;;33.38;18.54;101211.34;5118545;27;45317;-50
2022/08/11 14:58:17;;;;;;;;;11.00;9.20;;;;;33.42;18.94;101216.00;5118941;27;45328;-50
2022/08/11 15:00:44;;;;;;;;;11.60;10.00;;;;;33.39;18.85;101211.03;5118766;27;45883;-51
2022/08/11 15:03:12;;;;;;;;;8.60;8.20;;;;;33.46;19.06;101211.59;5118419;27;45559;-52
2022/08/11 15:05:51;;;;;;;;;11.40;9.80;;;;;33.45;18.67;101211.84;5118736;27;45536;-49
2022/08/11 15:08:18;;;;;;;;;12.20;12.20;;;;;33.49;18.78;101210.16;5118856;27;45294;-51
2022/08/11 15:10:46;;;;;;;;;7.60;6.40;;;;;33.48;19.03;101209.34;5118490;27;45997;-51
2022/08/11 15:13:17;;;;;;;;;12.00;10.60;;;;;33.42;18.83;101190.34;5118227;27;45385;-49
2022/08/11 15:18:28;;;;;;;;;7.80;7.80;;;;;33.41;18.73;101199.72;5118644;27;45266;-52
2022/08/11 15:37:43;;;;;;;;;12.80;9.20;;;;;33.37;18.98;101184.84;5117786;27;45464;-51
2022/08/11 15:46:14;;;;;;;;;10.20;9.40;;;;;33.26;19.12;101184.13;5117396;27;45405;-53
2022/08/11 15:48:47;;;;;;;;;9.60;9.60;;;;;33.30;18.67;101176.13;5099499;27;45373;-53
2022/08/11 15:51:21;;;;;;;;;8.00;8.00;;;;;33.35;19.11;101187.09;5118166;27;45479;-52
2022/08/11 15:53:53;;;;;;;;;10.20;10.00;;;;;33.33;19.01;101179.09;5117776;27;47005;-50
2022/08/11 15:56:23;;;;;;;;;12.40;9.80;;;;;33.33;18.81;101173.56;5117957;27;45360;-51
2022/08/11 16:04:25;;;;;;;;;10.60;10.40;;;;;33.35;19.30;101171.38;5117879;27;45385;-51
2022/08/11 16:07:04;;;;;;;;;11.60;11.40;;;;;33.24;19.25;101158.78;5118029;27;45181;-48
2022/08/11 16:09:34;;;;;;;;;10.40;9.40;;;;;33.29;18.99;101178.06;5117869;27;45440;-49
2022/08/11 16:12:07;;;;;;;;;12.20;10.80;;;;;33.22;18.97;101161.00;5118041;27;45321;-48
2022/08/11 16:17:25;;;;;;;;;10.80;10.40;;;;;33.14;18.98;101169.91;5117853;27;45304;-53
2022/08/11 16:19:52;;;;;;;;;9.60;9.60;;;;;33.05;19.13;101155.09;5117608;27;45406;-49
2022/08/11 16:22:38;;;;;;;;;10.80;9.20;;;;;33.11;18.78;101171.28;5117907;27;45313;-51
2022/08/11 16:25:08;;;;;;;;;9.40;9.00;;;;;33.09;18.91;101169.94;5117733;27;47389;-50
2022/08/11 16:27:47;;;;;;;;;9.00;9.00;;;;;33.09;19.18;101168.00;5117713;27;45450;-50
2022/08/11 16:30:16;;;;;;;;;8.40;8.00;;;;;33.09;19.45;101167.19;5117524;27;45351;-51
2022/08/11 16:32:45;;;;;;;;;8.40;7.60;;;;;33.02;18.69;101162.81;5117597;27;45365;-49